Aviation Digital Data Service (ADDS)

Output produced by METARs form (0248 UTC 21 September 2018)
found at http://aviationweather.gov/metar/data/
 
METAR text: KCVH 210235Z AUTO 30008G17KT 10SM CLR 22/05 A2984 RMK A01
Conditions at: KCVH (HOLLISTER MUNI , CA, US) observed 0235 UTC 21 September 2018
Temperature: 22.0°C (72°F)
Dewpoint: 5.0°C (41°F) [RH = 33%]
Pressure (altimeter): 29.84 inches Hg (1010.6 mb)
Winds: from the WNW (300 degrees) at 9 MPH (8 knots; 4.1 m/s)
gusting to 20 MPH (17 knots; 8.7 m/s)
Visibility: 10 or more miles (16+ km)
Ceiling: at least 12,000 feet AGL
Clouds: sky clear below 12,000 feet AGL
Weather: automated observation with no human augmentation;
there may or may not be significant weather present at this time